Terminal Aerodrome Forecast
Issued by NWS

Home | Current Version | Previous Version | Text Only | Print | Product List | Glossary On
Versions: 1 2 3 4 5 6 7 8 9 10 11 12 13 14 15 16 17 18 19 20 21 22 23 24 25
796
FTUS45 KGJT 101722
TAFTEX
TAF
KTEX 101722Z 1018/1118 13004KT P6SM FEW250
     FM101900 26008G15KT P6SM SCT250
     FM110200 13005KT P6SM SKC=

USA.gov is the U.S. government's official web portal to all federal, state and local government web resources and services.